Time;durP1;ratioP1;P1;durP2;ratioP2;P2;SDS_P1;SDS_P2;PMS_P1;PMS_P2;Temp;Humidity;BMP_temperature;BMP_pressure;BME280_temperature;BME280_humidity;BME280_pressure;Samples;Min_cycle;Max_cycle;Signal;HPM_P1;HPM_P2
2022/06/12 00:00:53;;;;;;;5.23;4.03;;;;;;;22.66;62.14;100807.44;5038652;28;20173;-60
2022/06/12 00:03:19;;;;;;;7.17;4.20;;;;;;;22.66;61.98;100810.31;5030480;28;20191;-60
2022/06/12 00:05:47;;;;;;;7.13;4.60;;;;;;;22.66;61.76;100816.06;5033098;28;20811;-60
2022/06/12 00:08:12;;;;;;;6.60;3.77;;;;;;;22.66;61.93;100821.00;5034436;28;20466;-60
2022/06/12 00:10:41;;;;;;;5.17;3.77;;;;;;;22.65;61.71;100814.41;5034672;28;21016;-60
2022/06/12 00:13:07;;;;;;;9.53;4.27;;;;;;;22.66;62.03;100821.00;5038932;28;20180;-60
2022/06/12 00:15:33;;;;;;;4.93;3.80;;;;;;;22.65;61.56;100817.31;5034101;28;20459;-60
2022/06/12 00:17:58;;;;;;;4.50;3.50;;;;;;;22.65;61.79;100822.22;5053213;28;20493;-60
2022/06/12 00:20:24;;;;;;;6.50;3.87;;;;;;;22.65;61.76;100817.31;5034381;28;20702;-60
2022/06/12 00:22:50;;;;;;;7.60;4.47;;;;;;;22.64;61.34;100818.53;5034112;28;20522;-60
2022/06/12 00:25:17;;;;;;;6.60;4.00;;;;;;;22.64;61.69;100824.28;5033818;28;20263;-60
2022/06/12 00:27:42;;;;;;;5.60;4.00;;;;;;;22.63;61.50;100822.59;5033266;28;20616;-60
2022/06/12 00:30:09;;;;;;;6.53;3.80;;;;;;;22.64;61.69;100823.44;5032616;28;20411;-60
2022/06/12 00:32:35;;;;;;;6.17;3.80;;;;;;;22.63;61.51;100816.03;5032717;28;20184;-60
2022/06/12 00:35:01;;;;;;;6.00;4.10;;;;;;;22.63;61.78;100810.28;5032694;28;20415;-60
2022/06/12 00:37:27;;;;;;;5.93;3.87;;;;;;;22.63;61.36;100810.28;5037097;28;20227;-60
2022/06/12 00:39:53;;;;;;;6.37;3.90;;;;;;;22.63;61.81;100810.28;5046535;28;20210;-60
2022/06/12 00:42:46;;;;;;;5.53;4.00;;;;;;;22.62;61.47;100808.63;5053771;28;20178;-60
2022/06/12 00:45:45;;;;;;;5.50;3.50;;;;;;;22.62;61.34;100814.41;5053627;28;20481;-60
2022/06/12 00:48:23;;;;;;;5.10;3.30;;;;;;;22.61;61.58;100809.84;5052853;28;20418;-60
2022/06/12 00:50:59;;;;;;;4.93;3.43;;;;;;;22.60;61.20;100809.03;5053703;28;20513;-60
2022/06/12 00:53:39;;;;;;;6.10;4.00;;;;;;;22.61;61.28;100810.69;5053599;28;20456;-60
2022/06/12 00:56:10;;;;;;;5.53;3.60;;;;;;;22.60;61.56;100811.91;5052481;28;20453;-60
2022/06/12 00:58:39;;;;;;;5.23;3.70;;;;;;;22.60;61.67;100808.19;5052292;28;20941;-60
2022/06/12 01:01:07;;;;;;;5.10;3.37;;;;;;;22.61;61.00;100815.59;5046497;28;20477;-60
2022/06/12 01:06:33;;;;;;;6.00;3.90;;;;;;;22.60;61.64;100809.03;5031947;28;20430;-60
2022/06/12 01:06:33;;;;;;;4.77;3.37;;;;;;;22.58;61.24;100811.47;5033027;28;20528;-60
2022/06/12 01:09:00;;;;;;;4.77;3.57;;;;;;;22.59;61.35;100809.41;5033417;28;20399;-60
2022/06/12 01:11:26;;;;;;;5.43;3.93;;;;;;;22.58;61.33;100808.56;5033183;28;20426;-60
2022/06/12 01:13:51;;;;;;;5.77;3.97;;;;;;;22.59;61.16;100809.41;5033387;28;20423;-60
2022/06/12 01:16:18;;;;;;;6.23;3.70;;;;;;;22.59;61.39;100809.41;5015651;28;20656;-60
2022/06/12 01:18:51;;;;;;;5.70;3.90;;;;;;;22.58;61.39;100817.22;5048954;28;20609;-60
2022/06/12 01:21:33;;;;;;;5.43;3.10;;;;;;;22.57;61.14;100812.69;5015882;28;20418;-60
2022/06/12 01:24:21;;;;;;;4.40;3.27;;;;;;;22.56;61.13;100813.06;5031940;28;20450;-61
2022/06/12 01:27:22;;;;;;;5.10;3.03;;;;;;;22.57;61.13;100821.31;5033038;28;20411;-60
2022/06/12 01:30:07;;;;;;;5.47;3.60;;;;;;;22.56;60.98;100819.66;5030430;28;20527;-60
2022/06/12 01:32:38;;;;;;;4.60;3.63;;;;;;;22.56;61.26;100819.66;5030482;28;20410;-60
2022/06/12 01:35:07;;;;;;;6.30;3.13;;;;;;;22.55;61.05;100812.25;5031359;28;20796;-60
2022/06/12 01:37:37;;;;;;;6.83;3.63;;;;;;;22.55;61.00;100815.16;5031512;28;20466;-60
2022/06/12 01:40:20;;;;;;;5.13;3.40;;;;;;;22.56;61.22;100818.81;5030984;28;20415;-60
2022/06/12 01:42:51;;;;;;;4.70;3.17;;;;;;;22.56;61.35;100816.78;5031393;28;20837;-60
2022/06/12 01:45:37;;;;;;;6.43;3.47;;;;;;;22.57;60.77;100811.88;5032675;28;20408;-60
2022/06/12 01:48:37;;;;;;;6.70;4.17;;;;;;;22.55;60.69;100815.16;5031320;28;20423;-60
2022/06/12 01:51:25;;;;;;;8.30;4.10;;;;;;;22.55;61.31;100815.16;5020458;28;20884;-60
2022/06/12 01:53:58;;;;;;;6.00;3.80;;;;;;;22.54;61.32;100809.78;5031365;28;20796;-60
2022/06/12 01:56:25;;;;;;;4.80;3.33;;;;;;;22.53;60.59;100811.81;5031062;28;20536;-60
2022/06/12 01:59:01;;;;;;;4.57;3.13;;;;;;;22.54;61.17;100807.75;5041708;28;20434;-60
2022/06/12 02:01:43;;;;;;;4.90;3.50;;;;;;;22.53;61.26;100806.06;5049597;28;20488;-60
2022/06/12 02:04:14;;;;;;;7.60;3.37;;;;;;;22.53;61.18;100811.81;5049043;28;20425;-60
2022/06/12 02:06:43;;;;;;;7.97;3.60;;;;;;;22.52;60.69;100804.41;5049291;28;20471;-60
2022/06/12 02:09:22;;;;;;;6.10;3.43;;;;;;;22.53;60.99;100808.13;5033065;28;20422;-60
2022/06/12 02:14:57;;;;;;;6.20;3.50;;;;;;;22.53;60.83;100802.38;5037313;28;20998;-60
2022/06/12 02:17:32;;;;;;;4.70;3.30;;;;;;;22.51;61.22;100805.63;5044559;28;20465;-60
2022/06/12 02:19:58;;;;;;;5.77;3.87;;;;;;;22.51;60.98;100805.63;5048381;28;20790;-60
2022/06/12 02:22:25;;;;;;;5.07;3.37;;;;;;;22.53;60.64;100803.19;5050478;28;20490;-60
2022/06/12 02:24:56;;;;;;;4.33;3.70;;;;;;;22.51;60.87;100802.75;5050425;28;20187;-60
2022/06/12 02:27:45;;;;;;;7.13;3.90;;;;;;;22.51;60.95;100799.88;5050283;28;20908;-60
2022/06/12 02:30:17;;;;;;;7.90;4.23;;;;;;;22.51;61.00;100799.88;5051618;28;20771;-60
2022/06/12 02:32:49;;;;;;;6.63;3.30;;;;;;;22.50;60.92;100795.38;5051582;28;20417;-60
2022/06/12 02:35:44;;;;;;;6.33;3.63;;;;;;;22.51;60.93;100801.94;5051414;28;20422;-60
2022/06/12 02:38:21;;;;;;;6.50;4.10;;;;;;;22.50;60.27;100801.13;5049274;28;20796;-60
2022/06/12 02:41:02;;;;;;;4.33;3.13;;;;;;;22.50;61.04;100806.88;5049752;28;20422;-60
2022/06/12 02:43:28;;;;;;;4.03;3.30;;;;;;;22.49;60.75;100799.47;5051296;28;20437;-60
2022/06/12 02:46:02;;;;;;;3.93;3.20;;;;;;;22.49;60.87;100796.59;5051433;28;20909;-60
2022/06/12 02:48:29;;;;;;;5.23;3.40;;;;;;;22.50;60.48;100797.41;5040783;28;20502;-60
2022/06/12 02:51:13;;;;;;;5.70;3.70;;;;;;;22.49;60.57;100790.84;5014033;28;20507;-60
2022/06/12 02:54:15;;;;;;;4.93;3.30;;;;;;;22.49;60.49;100787.97;5028237;28;20419;-60
2022/06/12 02:57:14;;;;;;;4.90;3.17;;;;;;;22.49;60.76;100790.00;5029834;28;20438;-60
2022/06/12 02:59:51;;;;;;;3.70;3.10;;;;;;;22.48;60.54;100789.16;5029309;28;20473;-61
2022/06/12 03:02:35;;;;;;;4.50;3.40;;;;;;;22.48;60.60;100789.16;5030485;28;20429;-60
2022/06/12 03:05:14;;;;;;;4.10;3.00;;;;;;;22.47;60.40;100783.81;5048289;28;20422;-60
2022/06/12 03:07:40;;;;;;;5.67;3.43;;;;;;;22.46;60.50;100785.03;5048689;28;20520;-60
2022/06/12 03:10:07;;;;;;;4.80;3.20;;;;;;;22.47;60.63;100783.81;5049869;28;20418;-60
2022/06/12 03:12:33;;;;;;;4.00;3.30;;;;;;;22.46;60.72;100800.25;5033391;28;20254;-60
2022/06/12 03:15:02;;;;;;;5.53;3.80;;;;;;;22.46;60.27;100794.50;5051171;28;20752;-60
2022/06/12 03:17:27;;;;;;;4.00;3.10;;;;;;;22.45;60.34;100798.59;5041598;28;20413;-60
2022/06/12 03:19:54;;;;;;;5.10;3.37;;;;;;;22.45;60.33;100798.59;5030865;28;20509;-60
2022/06/12 03:22:43;;;;;;;5.07;3.10;;;;;;;22.45;60.56;100792.84;5031162;28;20263;-60
2022/06/12 03:25:17;;;;;;;4.93;3.30;;;;;;;22.45;60.40;100797.75;5011601;28;20528;-60
2022/06/12 03:28:00;;;;;;;4.67;3.67;;;;;;;22.45;60.35;100803.50;5027835;28;20806;-60
2022/06/12 03:30:35;;;;;;;4.83;3.17;;;;;;;22.44;60.16;100807.59;5027933;28;20525;-60
2022/06/12 03:33:12;;;;;;;4.50;3.17;;;;;;;22.45;60.20;100809.25;5026395;28;20430;-60
2022/06/12 03:35:47;;;;;;;4.00;3.07;;;;;;;22.44;60.46;100807.59;5026316;28;20411;-60
2022/06/12 03:38:43;;;;;;;5.50;3.60;;;;;;;22.43;60.14;100811.69;5027463;28;20423;-60
2022/06/12 03:41:21;;;;;;;4.80;3.00;;;;;;;22.42;60.44;100819.50;5028163;28;20786;-60
2022/06/12 03:43:53;;;;;;;4.13;3.23;;;;;;;22.43;60.12;100824.00;5030742;28;20485;-60
2022/06/12 03:46:32;;;;;;;3.90;2.93;;;;;;;22.43;60.06;100820.31;5030828;28;20438;-60
2022/06/12 03:49:10;;;;;;;3.63;3.00;;;;;;;22.41;60.43;100819.88;5029195;28;20423;-60
2022/06/12 03:51:46;;;;;;;5.03;3.10;;;;;;;22.43;60.54;100828.97;5030812;28;20951;-60
2022/06/12 03:54:26;;;;;;;6.50;3.17;;;;;;;22.41;60.37;100826.47;5030599;28;20422;-60
2022/06/12 04:00:07;;;;;;;5.77;3.43;;;;;;;22.40;60.40;100832.63;5029445;28;20446;-60
2022/06/12 04:02:33;;;;;;;3.87;3.00;;;;;;;22.41;60.11;100832.22;5050034;28;20417;-60
2022/06/12 04:04:58;;;;;;;4.67;3.17;;;;;;;22.40;60.29;100836.34;5048492;28;20778;-60
2022/06/12 04:07:24;;;;;;;4.17;2.93;;;;;;;22.41;60.48;100837.13;5032367;28;20568;-60
2022/06/12 04:09:51;;;;;;;6.10;3.30;;;;;;;22.41;59.68;100834.25;5049374;28;20199;-60
2022/06/12 04:12:20;;;;;;;5.03;3.47;;;;;;;22.40;60.37;100833.44;5000728;28;20467;-60
2022/06/12 04:14:54;;;;;;;4.60;3.20;;;;;;;22.40;60.38;100823.97;5029120;28;20419;-60
2022/06/12 04:17:21;;;;;;;4.53;3.27;;;;;;;22.39;60.34;100840.44;5047665;28;20453;-60
2022/06/12 04:19:59;;;;;;;5.07;3.87;;;;;;;22.39;59.91;100837.56;5013194;28;20415;-60
2022/06/12 04:22:37;;;;;;;5.10;3.67;;;;;;;22.39;59.83;100839.59;5029279;28;20407;-60
2022/06/12 04:25:28;;;;;;;5.30;3.97;;;;;;;22.39;60.26;100840.44;5030588;28;20418;-60
2022/06/12 04:27:54;;;;;;;5.10;3.57;;;;;;;22.40;59.94;100842.09;5049854;28;20422;-60
2022/06/12 04:30:26;;;;;;;6.33;3.90;;;;;;;22.39;60.23;100846.19;5050007;28;20924;-60
2022/06/12 04:33:03;;;;;;;5.67;3.77;;;;;;;22.39;60.09;100851.09;5050133;28;20163;-60
2022/06/12 04:35:29;;;;;;;8.53;4.20;;;;;;;22.39;60.15;100846.19;5032980;28;20450;-60
2022/06/12 04:37:54;;;;;;;8.13;4.87;;;;;;;22.40;60.04;100847.00;5032235;28;20486;-60
2022/06/12 04:40:24;;;;;;;6.30;4.33;;;;;;;22.44;59.57;100853.63;5049394;28;20647;-60
2022/06/12 04:42:50;;;;;;;6.37;4.57;;;;;;;22.47;59.65;100844.25;5048865;28;20168;-60
2022/06/12 04:45:15;;;;;;;6.30;4.30;;;;;;;22.49;59.62;100847.53;5050062;28;20818;-60
2022/06/12 04:47:41;;;;;;;6.80;4.27;;;;;;;22.51;59.86;100850.84;5047179;28;20176;-60
2022/06/12 04:50:12;;;;;;;7.80;4.60;;;;;;;22.52;59.76;100858.28;5030089;28;20195;-60
2022/06/12 04:52:38;;;;;;;5.83;4.33;;;;;;;22.53;59.67;100857.88;5041908;28;20179;-60
2022/06/12 04:55:03;;;;;;;5.33;4.00;;;;;;;22.54;59.47;100852.94;5053578;28;20414;-60
2022/06/12 04:57:29;;;;;;;6.43;4.23;;;;;;;22.55;59.96;100851.72;5053706;28;20210;-60
2022/06/12 04:59:55;;;;;;;7.87;4.60;;;;;;;22.56;59.91;100847.59;5053388;28;20175;-60
2022/06/12 05:02:20;;;;;;;6.13;4.60;;;;;;;22.56;59.83;100848.44;5053505;28;20217;-60
2022/06/12 05:04:45;;;;;;;6.70;4.33;;;;;;;22.56;59.65;100859.13;5053373;28;20172;-60
2022/06/12 05:07:11;;;;;;;6.00;4.20;;;;;;;22.54;59.53;100859.53;5053066;28;20277;-60
2022/06/12 05:09:39;;;;;;;6.27;4.57;;;;;;;22.53;60.12;100854.19;5052213;28;20222;-60
2022/06/12 05:12:05;;;;;;;6.10;3.97;;;;;;;22.53;59.88;100854.97;5053520;28;20183;-60
2022/06/12 05:14:31;;;;;;;5.83;4.40;;;;;;;22.54;60.48;100855.81;5053320;28;20523;-60
2022/06/12 05:17:02;;;;;;;6.20;4.10;;;;;;;22.54;59.78;100856.66;5059434;28;20449;-60
2022/06/12 05:19:29;;;;;;;7.80;5.03;;;;;;;22.55;60.25;100857.47;5038095;28;20180;-60
2022/06/12 05:21:55;;;;;;;6.67;4.23;;;;;;;22.56;59.92;100857.09;5033155;28;20415;-60
2022/06/12 05:24:20;;;;;;;6.80;4.93;;;;;;;22.57;59.77;100852.97;5033075;28;20442;-60
2022/06/12 05:26:46;;;;;;;6.40;4.60;;;;;;;22.59;60.27;100852.59;5033321;28;20172;-60
2022/06/12 05:29:15;;;;;;;6.20;4.10;;;;;;;22.62;60.02;100855.50;5031591;28;20168;-60
2022/06/12 05:31:41;;;;;;;5.57;4.07;;;;;;;22.63;60.28;100856.34;5015539;28;20271;-60
2022/06/12 05:34:06;;;;;;;6.60;4.47;;;;;;;22.63;60.03;100859.22;5032994;28;20423;-60
2022/06/12 05:36:31;;;;;;;6.87;4.37;;;;;;;22.62;59.79;100863.31;5032495;28;20188;-60
2022/06/12 05:38:57;;;;;;;7.33;4.13;;;;;;;22.62;60.12;100854.69;5032993;28;20161;-60
2022/06/12 05:41:22;;;;;;;6.60;4.10;;;;;;;22.61;60.32;100853.84;5032983;28;20176;-60
2022/06/12 05:43:48;;;;;;;5.10;3.57;;;;;;;22.61;60.03;100853.84;5032871;28;20175;-60
2022/06/12 05:46:14;;;;;;;6.73;4.13;;;;;;;22.61;60.46;100855.88;5032746;28;20173;-60
2022/06/12 05:48:39;;;;;;;5.97;3.93;;;;;;;22.59;60.32;100855.47;5032530;28;20184;-60
2022/06/12 05:51:05;;;;;;;6.03;3.90;;;;;;;22.61;59.80;100865.38;5032368;28;20429;-60
2022/06/12 05:53:32;;;;;;;5.40;3.70;;;;;;;22.62;59.93;100861.25;5048722;28;20314;-60
2022/06/12 05:55:57;;;;;;;5.77;3.63;;;;;;;22.64;60.14;100858.84;5052342;28;20199;-60
2022/06/12 05:58:27;;;;;;;4.90;3.70;;;;;;;22.65;60.27;100859.63;5051250;28;20432;-60
2022/06/12 06:00:52;;;;;;;6.10;4.30;;;;;;;22.65;60.21;100863.34;5052302;28;20262;-60
2022/06/12 06:03:18;;;;;;;4.73;3.40;;;;;;;22.67;60.13;100862.97;5051732;28;20944;-60
2022/06/12 06:05:43;;;;;;;8.70;4.30;;;;;;;22.66;59.55;100862.13;5051946;28;20701;-60
2022/06/12 06:08:10;;;;;;;6.07;3.80;;;;;;;22.70;59.68;100859.28;5031051;28;20231;-60
2022/06/12 06:10:35;;;;;;;4.43;3.23;;;;;;;22.70;59.83;100860.13;5051942;28;20222;-60
2022/06/12 06:13:01;;;;;;;6.40;3.90;;;;;;;22.71;59.76;100864.66;5051878;28;20418;-60
2022/06/12 06:15:26;;;;;;;5.83;3.47;;;;;;;22.72;60.03;100856.84;5052152;28;20171;-61
2022/06/12 06:17:53;;;;;;;7.80;4.43;;;;;;;22.71;60.23;100861.75;5056870;28;20228;-60
2022/06/12 06:20:27;;;;;;;6.27;3.43;;;;;;;22.70;59.97;100851.47;5031824;28;20454;-60
2022/06/12 06:22:53;;;;;;;6.23;4.53;;;;;;;22.69;60.19;100858.47;5032267;28;20177;-60
2022/06/12 06:25:18;;;;;;;5.90;3.83;;;;;;;22.68;60.07;100855.97;5032487;28;20435;-60
2022/06/12 06:27:44;;;;;;;4.90;4.00;;;;;;;22.65;60.38;100859.63;5051619;28;20225;-60
2022/06/12 06:30:10;;;;;;;6.20;4.30;;;;;;;22.63;60.51;100865.78;5051683;28;20176;-60
2022/06/12 06:32:36;;;;;;;4.30;3.47;;;;;;;22.63;60.53;100864.97;5038453;28;20189;-60
2022/06/12 06:35:04;;;;;;;6.43;3.90;;;;;;;22.61;60.20;100859.59;5031618;28;20427;-60
2022/06/12 06:37:30;;;;;;;4.80;4.07;;;;;;;22.60;60.28;100872.34;5051291;28;20469;-60
2022/06/12 06:39:55;;;;;;;7.43;3.57;;;;;;;22.60;60.31;100866.59;5051632;28;20410;-60
2022/06/12 06:42:21;;;;;;;5.40;4.00;;;;;;;22.59;60.44;100870.69;5051648;28;20202;-60
2022/06/12 06:47:31;;;;;;;6.70;3.40;;;;;;;22.59;60.25;100864.94;5050009;28;20203;-60
2022/06/12 06:49:56;;;;;;;5.00;4.00;;;;;;;22.60;60.61;100871.50;5031501;28;20857;-60
2022/06/12 06:52:22;;;;;;;5.10;3.63;;;;;;;22.60;60.67;100866.59;5031413;28;20193;-60
2022/06/12 06:54:47;;;;;;;10.10;4.47;;;;;;;22.61;60.73;100868.25;5031285;28;20172;-60
2022/06/12 06:57:12;;;;;;;6.43;3.33;;;;;;;22.63;60.89;100864.97;5031354;28;20208;-60
2022/06/12 06:59:38;;;;;;;5.03;3.40;;;;;;;22.63;60.34;100868.66;5036304;28;20234;-60
2022/06/12 07:02:04;;;;;;;6.20;3.70;;;;;;;22.63;60.61;100862.09;5050036;28;20190;-60
2022/06/12 07:04:30;;;;;;;6.00;3.33;;;;;;;22.62;60.70;100854.69;5051305;28;20202;-60
2022/06/12 07:06:55;;;;;;;6.03;3.93;;;;;;;22.62;60.43;100861.25;5050967;28;20262;-60
2022/06/12 07:09:21;;;;;;;5.83;3.90;;;;;;;22.61;60.59;100864.53;5050962;28;20423;-60
2022/06/12 07:11:46;;;;;;;7.43;4.10;;;;;;;22.58;60.61;100866.13;5050983;28;20198;-60
2022/06/12 07:14:12;;;;;;;4.83;3.23;;;;;;;22.58;60.73;100874.78;5050271;28;20187;-60
2022/06/12 07:16:38;;;;;;;8.43;3.50;;;;;;;22.57;60.77;100870.25;5054510;28;20575;-60
2022/06/12 07:19:04;;;;;;;7.17;3.70;;;;;;;22.57;61.17;100858.72;5042554;28;20267;-60
2022/06/12 07:21:29;;;;;;;6.17;4.10;;;;;;;22.57;61.17;100855.84;5030900;28;20426;-60
2022/06/12 07:23:55;;;;;;;4.27;3.40;;;;;;;22.57;60.85;100857.94;5030751;28;20250;-60
2022/06/12 07:26:32;;;;;;;6.13;3.60;;;;;;;22.57;60.86;100850.09;5030897;28;20194;-60
2022/06/12 07:28:57;;;;;;;5.70;3.33;;;;;;;22.58;60.58;100850.94;5030087;28;20184;-60
2022/06/12 07:31:22;;;;;;;4.80;3.40;;;;;;;22.57;61.13;100847.22;5030880;28;20426;-60
2022/06/12 07:33:48;;;;;;;6.00;3.23;;;;;;;22.57;60.73;100855.03;5031014;28;20529;-60
2022/06/12 07:36:14;;;;;;;5.70;3.07;;;;;;;22.58;61.11;100853.81;5029298;28;20554;-60
2022/06/12 07:38:40;;;;;;;10.57;3.90;;;;;;;22.57;60.84;100857.94;5029260;28;20289;-60
2022/06/12 07:41:07;;;;;;;4.83;3.10;;;;;;;22.57;60.76;100852.97;5030863;28;20172;-60
2022/06/12 07:43:35;;;;;;;5.63;3.80;;;;;;;22.57;60.85;100855.84;5030745;28;20214;-60
2022/06/12 07:46:04;;;;;;;7.17;3.67;;;;;;;22.57;61.20;100857.94;5030272;28;20462;-60
2022/06/12 07:48:31;;;;;;;4.63;3.40;;;;;;;22.56;61.24;100862.00;5029277;28;20431;-60
2022/06/12 07:50:57;;;;;;;4.20;3.50;;;;;;;22.56;61.31;100856.25;5029085;28;20435;-60
2022/06/12 07:53:22;;;;;;;4.70;3.23;;;;;;;22.56;61.01;100856.25;5029655;28;20895;-60
2022/06/12 07:55:50;;;;;;;4.70;3.80;;;;;;;22.55;60.93;100846.81;5029505;28;20697;-60
2022/06/12 07:58:16;;;;;;;5.30;3.27;;;;;;;22.56;61.48;100850.50;5044234;28;20175;-60
2022/06/12 08:00:42;;;;;;;5.33;3.27;;;;;;;22.56;61.49;100844.72;5049151;28;20840;-60
2022/06/12 08:03:07;;;;;;;4.10;3.37;;;;;;;22.56;61.79;100838.97;5048997;28;20202;-59
2022/06/12 08:05:33;;;;;;;5.90;3.70;;;;;;;22.56;61.52;100842.69;5047875;28;20678;-60
2022/06/12 08:07:58;;;;;;;4.30;3.60;;;;;;;22.56;60.95;100833.22;5046490;28;20290;-60
2022/06/12 08:10:24;;;;;;;5.20;3.67;;;;;;;22.56;61.34;100831.19;5049004;28;20198;-60
2022/06/12 08:12:49;;;;;;;4.90;3.87;;;;;;;22.55;61.50;100820.91;5048860;28;20244;-60
2022/06/12 08:15:25;;;;;;;6.50;4.30;;;;;;;22.57;61.25;100829.16;5048949;28;20225;-60
2022/06/12 08:17:51;;;;;;;4.67;3.60;;;;;;;22.57;61.01;100829.16;5053980;28;20296;-60
2022/06/12 08:20:25;;;;;;;5.93;3.97;;;;;;;22.57;61.12;100823.38;5033469;28;20414;-60
2022/06/12 08:23:26;;;;;;;5.80;3.87;;;;;;;22.58;61.57;100819.28;5047534;28;20175;-60
2022/06/12 08:26:06;;;;;;;6.03;4.03;;;;;;;22.57;61.30;100826.28;5036124;28;20419;-60
2022/06/12 08:28:35;;;;;;;6.47;4.00;;;;;;;22.57;61.46;100812.69;5032625;28;20453;-60
2022/06/12 08:31:02;;;;;;;4.73;3.80;;;;;;;22.57;61.53;100812.69;5032573;28;20449;-60
2022/06/12 08:33:28;;;;;;;8.00;3.50;;;;;;;22.57;61.14;100809.81;5045838;28;20513;-60
2022/06/12 08:35:53;;;;;;;5.73;4.03;;;;;;;22.58;61.66;100808.56;5052569;28;20422;-60
2022/06/12 08:38:19;;;;;;;7.20;4.27;;;;;;;22.60;61.41;100811.06;5052402;28;20164;-60
2022/06/12 08:41:30;;;;;;;5.17;3.70;;;;;;;22.58;61.27;100805.69;5052472;28;20538;-60
2022/06/12 08:44:03;;;;;;;6.57;3.43;;;;;;;22.59;61.42;100806.53;5051880;28;20270;-60
2022/06/12 08:46:38;;;;;;;5.20;3.50;;;;;;;22.58;61.72;100807.78;5052468;28;20418;-60
2022/06/12 08:49:22;;;;;;;7.07;4.53;;;;;;;22.59;61.72;100816.00;5020505;28;20422;-60
2022/06/12 08:52:31;;;;;;;5.57;3.70;;;;;;;22.58;61.61;100808.56;5036026;28;20933;-60
2022/06/12 08:54:58;;;;;;;4.73;3.30;;;;;;;22.59;61.29;100810.25;5050821;28;20468;-60
2022/06/12 08:57:32;;;;;;;5.17;3.43;;;;;;;22.60;61.37;100808.19;5052064;28;20453;-60
2022/06/12 09:00:11;;;;;;;5.67;3.77;;;;;;;22.59;61.64;100810.25;5051876;28;20921;-60
2022/06/12 09:02:37;;;;;;;4.57;3.53;;;;;;;22.61;61.48;100812.72;5052123;28;20456;-60
2022/06/12 09:05:05;;;;;;;8.53;3.67;;;;;;;22.62;61.73;100802.88;5052053;28;20822;-60
2022/06/12 09:07:50;;;;;;;9.57;4.10;;;;;;;22.61;61.70;100802.03;5050885;28;20469;-60
2022/06/12 09:10:26;;;;;;;5.50;3.83;;;;;;;22.62;62.18;100805.75;5053047;28;20418;-60
2022/06/12 09:13:21;;;;;;;5.37;3.80;;;;;;;22.62;62.08;100803.69;5051985;28;20406;-60
2022/06/12 09:16:08;;;;;;;8.17;4.00;;;;;;;22.61;61.92;100802.03;5052319;28;20426;-60
2022/06/12 09:18:37;;;;;;;4.87;3.63;;;;;;;22.61;61.99;100789.69;5052310;28;20830;-60
2022/06/12 09:21:17;;;;;;;5.43;4.20;;;;;;;22.62;61.92;100789.28;5030774;28;20827;-60
2022/06/12 09:24:19;;;;;;;5.03;3.77;;;;;;;22.62;61.44;100797.94;5030381;28;20817;-60
2022/06/12 09:27:06;;;;;;;6.30;4.00;;;;;;;22.63;61.73;100795.91;5031095;28;20997;-60
2022/06/12 09:30:09;;;;;;;6.43;3.87;;;;;;;22.63;61.97;100790.13;5029865;28;20399;-60
2022/06/12 09:32:37;;;;;;;5.10;3.60;;;;;;;22.64;61.70;100792.63;5029684;28;20405;-60
2022/06/12 09:35:18;;;;;;;7.60;3.30;;;;;;;22.64;61.76;100789.75;5030550;28;20430;-60
2022/06/12 09:38:21;;;;;;;4.90;3.77;;;;;;;22.65;61.66;100802.06;5029347;28;20500;-60
2022/06/12 09:40:52;;;;;;;7.57;3.60;;;;;;;22.67;61.43;100799.63;5033146;28;20395;-60
2022/06/12 09:43:41;;;;;;;6.10;3.40;;;;;;;22.66;61.59;100787.28;5033023;28;20423;-60
2022/06/12 09:46:33;;;;;;;3.77;3.23;;;;;;;22.67;61.94;100794.69;5033021;28;20410;-60
2022/06/12 09:49:08;;;;;;;5.57;3.80;;;;;;;22.68;62.02;100789.78;5037458;28;20517;-60
2022/06/12 09:51:36;;;;;;;6.10;3.93;;;;;;;22.67;61.92;100786.06;5052593;28;20437;-60
2022/06/12 09:54:33;;;;;;;5.63;3.73;;;;;;;22.66;61.65;100781.53;5052103;28;20414;-60
2022/06/12 09:57:04;;;;;;;5.87;4.23;;;;;;;22.67;61.70;100779.50;5049813;28;20507;-60
2022/06/12 09:59:48;;;;;;;4.90;3.90;;;;;;;22.67;61.55;100767.97;5046436;28;20516;-60
2022/06/12 10:02:31;;;;;;;7.63;3.73;;;;;;;22.68;61.70;100767.56;5050968;28;20418;-60
2022/06/12 10:05:13;;;;;;;5.90;3.53;;;;;;;22.71;61.18;100763.06;5049743;28;20457;-60
2022/06/12 10:08:07;;;;;;;6.87;3.73;;;;;;;22.71;60.94;100765.94;5034512;28;20554;-60
2022/06/12 10:10:53;;;;;;;4.73;3.53;;;;;;;22.70;60.66;100759.38;5050477;28;20422;-60
2022/06/12 10:13:29;;;;;;;7.33;3.80;;;;;;;22.70;60.96;100752.78;5052321;28;20456;-60
2022/06/12 10:15:57;;;;;;;5.30;3.57;;;;;;;22.69;60.83;100751.97;5050857;28;20429;-60
2022/06/12 10:18:57;;;;;;;9.13;3.87;;;;;;;22.68;60.87;100741.66;5022609;28;20422;-60
2022/06/12 10:21:23;;;;;;;6.13;3.40;;;;;;;22.70;60.92;100744.13;5054528;28;20438;-60
2022/06/12 10:23:49;;;;;;;6.07;3.23;;;;;;;22.69;60.88;100743.31;5052062;28;20506;-60
2022/06/12 10:26:26;;;;;;;3.83;3.30;;;;;;;22.69;60.81;100749.09;5052046;28;20171;-60
2022/06/12 10:29:09;;;;;;;6.10;3.37;;;;;;;22.71;60.47;100737.97;5052000;28;20410;-60
2022/06/12 10:31:48;;;;;;;6.00;3.50;;;;;;;22.73;60.32;100735.53;5050046;28;20404;-60
2022/06/12 10:34:22;;;;;;;7.37;3.60;;;;;;;22.72;60.05;100731.00;5031876;28;20414;-60
2022/06/12 10:36:47;;;;;;;6.43;3.30;;;;;;;22.71;60.02;100725.63;5031733;28;20497;-60
2022/06/12 10:39:14;;;;;;;5.10;3.40;;;;;;;22.71;60.21;100726.47;5029896;28;20447;-59
2022/06/12 10:41:42;;;;;;;6.57;3.80;;;;;;;22.73;60.22;100728.94;5034637;28;20214;-60
2022/06/12 10:44:08;;;;;;;5.53;3.10;;;;;;;22.72;60.22;100733.88;5050034;28;20442;-60
2022/06/12 10:46:33;;;;;;;4.17;2.97;;;;;;;22.74;60.15;100731.44;5031028;28;20433;-60
2022/06/12 10:48:59;;;;;;;6.80;3.30;;;;;;;22.73;59.94;100721.13;5034637;28;20567;-60
2022/06/12 10:51:34;;;;;;;4.80;3.00;;;;;;;22.73;59.88;100718.25;5034417;28;20254;-60
2022/06/12 10:54:21;;;;;;;7.37;3.90;;;;;;;22.74;59.82;100713.31;5050006;28;20254;-60
2022/06/12 10:56:46;;;;;;;5.03;3.43;;;;;;;22.75;59.80;100706.34;5048758;28;20501;-60
2022/06/12 10:59:15;;;;;;;4.97;3.57;;;;;;;22.74;60.26;100708.41;5049955;28;20465;-59
2022/06/12 11:01:40;;;;;;;4.67;3.17;;;;;;;22.76;59.92;100705.09;5050676;28;20191;-59
2022/06/12 11:04:12;;;;;;;6.07;3.87;;;;;;;22.75;59.98;100707.19;5051646;28;20456;-60
2022/06/12 11:06:49;;;;;;;6.60;3.23;;;;;;;22.75;59.89;100700.59;4619334;28;22171;-60
2022/06/12 11:09:23;;;;;;;3.63;2.60;;;;;;;22.75;60.09;100698.53;5031216;28;20950;-60
2022/06/12 11:11:54;;;;;;;5.00;2.80;;;;;;;22.78;60.10;100691.97;5030021;28;20426;-60
2022/06/12 11:14:43;;;;;;;4.57;3.30;;;;;;;22.82;59.71;100689.13;5031363;28;20419;-60
2022/06/12 11:17:36;;;;;;;5.37;3.20;;;;;;;22.82;59.73;100698.59;5046757;28;20444;-60
2022/06/12 11:20:11;;;;;;;5.50;3.20;;;;;;;22.80;59.50;100691.56;5029677;28;20410;-60
2022/06/12 11:22:53;;;;;;;8.37;3.60;;;;;;;22.78;59.89;100679.63;5029747;28;20425;-60
2022/06/12 11:25:33;;;;;;;6.60;3.37;;;;;;;22.76;60.13;100682.91;5029597;28;20418;-60
2022/06/12 11:28:16;;;;;;;3.67;2.53;;;;;;;22.78;59.71;100679.63;5028223;28;20414;-60
2022/06/12 11:31:07;;;;;;;7.53;3.43;;;;;;;22.79;59.81;100670.59;5029578;28;20414;-60
2022/06/12 11:33:41;;;;;;;6.30;3.70;;;;;;;22.79;59.59;100670.59;5030269;28;21168;-60
2022/06/12 11:36:45;;;;;;;4.70;3.30;;;;;;;22.79;59.38;100673.50;5030793;28;20941;-60
2022/06/12 11:39:18;;;;;;;6.50;2.97;;;;;;;22.83;59.50;100670.63;5030900;28;20418;-60
2022/06/12 11:41:49;;;;;;;4.63;3.20;;;;;;;22.84;59.75;100667.34;5029602;28;20407;-60
2022/06/12 11:44:17;;;;;;;4.83;3.10;;;;;;;22.86;59.75;100666.94;5030707;28;20421;-60
2022/06/12 11:47:00;;;;;;;5.80;3.40;;;;;;;22.87;59.23;100660.78;5030123;28;20449;-60
2022/06/12 11:49:58;;;;;;;5.07;2.87;;;;;;;22.89;59.77;100654.63;5029847;28;20530;-60
2022/06/12 11:53:01;;;;;;;6.70;3.80;;;;;;;22.88;60.10;100653.78;5030361;28;20451;-60
2022/06/12 11:55:30;;;;;;;4.33;2.70;;;;;;;22.89;60.05;100654.63;5029133;28;20925;-60
2022/06/12 11:57:57;;;;;;;10.40;3.33;;;;;;;22.90;60.07;100650.50;5028830;28;20451;-60
2022/06/12 12:00:42;;;;;;;6.63;3.13;;;;;;;22.88;60.42;100645.16;5043241;28;20560;-60